Flight Track Log - Related Links

Times and Time Zones

All times are in EST time to prevent confusion due to time zone crossing. See the AAY855 flight status page for this flight to view local times or setup timezone preferences in your user account.

Time Position Orientation Groundspeed Altitude Reporting Facility
EST Latitude Longitude Course Direction KTS MPH feet Rate Location/Type
Wed 08:06:40 PM 41.6728 -86.2256 131° Southeast 188 216 4,000  Level Chicago Center
Wed 08:07:42 PM 41.6258 -86.1564 132° Southeast 243 280 6,700 2,661 Climbing Chicago Center
Wed 08:08:44 PM 41.5764 -86.0803 131° Southeast 268 308 9,500 1,742 Climbing Chicago Center
Wed 08:09:46 PM 41.5233 -85.9975 131° Southeast 293 337 10,300 1,597 Climbing Chicago Center
Wed 08:10:48 PM 41.4436 -85.8783 132° Southeast 359 413 12,800 2,323 Climbing Chicago Center
Wed 08:11:00 PM 41.2733 -85.6408 131° Southeast  Level FlightAware Approximate
Wed 08:11:50 PM 41.3719 -85.7750 133° Southeast 380 437 15,100  Level Chicago Center
Wed 08:12:52 PM 41.2778 -85.7053 151° Southeast 391 450 17,100 1,984 Climbing Chicago Center
Wed 08:13:54 PM 41.1797 -85.6353 152° Southeast 399 459 19,200 2,081 Climbing Chicago Center
Wed 08:14:56 PM 41.0539 -85.5753 160° South 402 463 21,400 1,839 Climbing Chicago Center
Wed 08:15:58 PM 40.9419 -85.5500 170° South 410 472 23,000 1,248 Climbing Chicago Center
Wed 08:17:01 PM 40.8289 -85.5314 173° South 410 472 24,000 480 Climbing Chicago Center
Wed 08:18:03 PM 40.7142 -85.5117 173° South 415 478 24,000 726 Level Chicago Center
Wed 08:19:05 PM 40.5867 -85.4908 173° South 414 476 25,500 1,597 Climbing Chicago Center
Wed 08:20:07 PM 40.4683 -85.4700 172° South 425 489 27,300 1,403 Climbing Chicago Center
Wed 08:21:09 PM 40.3492 -85.4508 173° South 429 494 28,400 1,245 Climbing Chicago Center
Wed 08:21:53 PM 40.2528 -85.4347 173° South 428 493 29,500 1,132 Climbing Indianapolis Center
Wed 08:22:55 PM 40.1314 -85.4144 173° South 432 497 30,400 1,113 Climbing Indianapolis Center
Wed 08:23:57 PM 40.0078 -85.3939 173° South 439 505 31,800 1,258 Climbing Indianapolis Center
Wed 08:24:59 PM 39.8878 -85.3731 172° South 439 505 33,000 1,073 Climbing Indianapolis Center
Wed 08:26:00 PM 39.7667 -85.3539 173° South 438 504 34,000 1,122 Climbing Indianapolis Center
Wed 08:27:02 PM 39.6439 -85.3347 173° South 439 505 35,300 466 Climbing Indianapolis Center
Wed 08:32:26 PM 38.9634 -85.2254 173° South 448 516 37,000 288 Climbing FlightAware ADS-B
Wed 08:32:56 PM 38.9017 -85.2157 173° South 448 516 37,000  Level FlightAware ADS-B
Wed 08:33:34 PM 38.8343 -85.2050 173° South 448 516 37,000  Level FlightAware ADS-B
Wed 08:34:11 PM 38.7584 -85.1929 173° South 446 513 37,000  Level FlightAware ADS-B
Wed 08:34:42 PM 38.7070 -85.1846 173° South 444 511 37,000  Level FlightAware ADS-B
Wed 08:35:38 PM 38.5707 -85.1631 173° South 441 507 37,000  Level FlightAware ADS-B
Wed 08:36:08 PM 38.5095 -85.1534 173° South 440 506 37,000  Level FlightAware ADS-B (EPWR / WRO)
Wed 08:36:39 PM 38.4463 -85.1435 173° South 438 504 37,000  Level FlightAware ADS-B
Wed 08:37:10 PM 38.3846 -85.1339 173° South 436 502 37,000  Level FlightAware ADS-B (EPWR / WRO)
Wed 08:37:53 PM 38.3010 -85.1210 173° South 433 498 37,000  Level FlightAware ADS-B (EPWR / WRO)
Wed 08:38:24 PM 38.2407 -85.1116 173° South 432 497 37,000  Level FlightAware ADS-B (EPWR / WRO)
Wed 08:38:54 PM 38.1814 -85.1024 173° South 432 497 37,000  Level FlightAware ADS-B (EPWR / WRO)
Wed 08:39:35 PM 38.0958 -85.0890 173° South 431 496 37,000  Level FlightAware ADS-B
Wed 08:40:19 PM 38.0090 -85.0756 173° South 431 496 37,000  Level FlightAware ADS-B (EPWR / WRO)
Wed 08:41:38 PM 37.8558 -85.0519 173° South 429 494 37,000  Level FlightAware ADS-B
Wed 08:42:39 PM 37.7328 -85.0330 173° South 426 490 37,000  Level FlightAware ADS-B
Wed 08:43:39 PM 37.6174 -85.0153 173° South 422 486 37,000  Level FlightAware ADS-B
Wed 08:44:25 PM 37.5306 -85.0019 173° South 421 484 37,000  Level FlightAware ADS-B (EPWR / WRO)
Wed 08:45:10 PM 37.4396 -84.9881 173° South 421 484 37,000  Level FlightAware ADS-B (EPWR / WRO)
Wed 08:45:54 PM 37.3544 -84.9752 173° South 420 483 37,000  Level FlightAware ADS-B (EPWR / WRO)
Wed 08:46:39 PM 37.2676 -84.9618 173° South 421 484 37,000  Level FlightAware ADS-B
Wed 08:47:09 PM 37.2340 -84.9566 173° South 422 486 37,000  Level FlightAware ADS-B (EPWR / WRO)
Wed 08:47:39 PM 37.1499 -84.9439 173° South 422 486 37,000  Level FlightAware ADS-B (EPWR / WRO)
Wed 08:48:24 PM 37.0634 -84.9309 173° South 421 484 37,000  Level FlightAware ADS-B (EPWR / WRO)
Wed 08:48:37 PM 37.0380 -84.9263 169° South 425 489 37,000  Level FlightAware ADS-B (EPWR / WRO)
Wed 08:49:09 PM 36.9775 -84.8986 156° South 442 509 37,000  Level FlightAware ADS-B (EPWR / WRO)
Wed 08:49:46 PM 36.9089 -84.8610 157° South 436 502 37,000  Level FlightAware ADS-B (EPWR / WRO)
Wed 08:50:37 PM 36.8142 -84.8098 157° South 433 498 37,000  Level FlightAware ADS-B
Wed 08:51:38 PM 36.7046 -84.7620 176° South 410 472 37,000  Level FlightAware ADS-B
Wed 08:52:38 PM 36.5869 -84.7495 175° South 414 476 37,000  Level FlightAware ADS-B
Wed 08:53:38 PM 36.4706 -84.7366 175° South 417 480 37,000  Level FlightAware ADS-B
Wed 08:54:39 PM 36.3540 -84.7240 175° South 421 484 37,000  Level FlightAware ADS-B
Wed 08:55:38 PM 36.2388 -84.7113 175° South 423 487 37,000  Level FlightAware ADS-B
Wed 08:56:33 PM 36.1666 -84.7034 175° South 423 487 37,000  Level FlightAware ADS-B
Wed 08:57:08 PM 36.0640 -84.6923 175° South 422 486 37,000 70 Level FlightAware ADS-B
Wed 08:57:59 PM 36.0640 -84.6923 175° South 418 481 37,100  Climbing FlightAware ADS-B
Wed 08:59:18 PM 35.8080 -84.6646 175° South 410 472 37,000 -22 Descending FlightAware ADS-B (KMDQ)
Wed 09:02:33 PM 35.4464 -84.6257 175° South 387 445 37,000  Level FlightAware ADS-B (KMDQ)
Wed 09:03:22 PM 35.3595 -84.6164 175° South 387 445 37,000  Level FlightAware ADS-B (KMDQ)
Wed 09:04:22 PM 35.2511 -84.6047 175° South 389 448 37,000  Level FlightAware ADS-B (KMDQ)
Wed 09:05:10 PM 35.1744 -84.5978 175° South 397 457 37,000  Level Atlanta Center
Wed 09:06:10 PM 35.0661 -84.5869 175° South 397 457 37,000  Level Atlanta Center
Wed 09:07:10 PM 34.9597 -84.5761 175° South 397 457 37,000  Level Atlanta Center
Wed 09:08:10 PM 34.8492 -84.5653 175° South 397 457 37,000  Level Atlanta Center
Wed 09:09:10 PM 34.7408 -84.5544 175° South 397 457 37,000  Level Atlanta Center
Wed 09:10:10 PM 34.6344 -84.5386 173° South 397 457 37,000  Level Atlanta Center
Wed 09:11:10 PM 34.5364 -84.5281 175° South 386 444 37,000  Level Atlanta Center
Wed 09:12:10 PM 34.4258 -84.5172 175° South 398 458 37,000  Level Atlanta Center
Wed 09:13:10 PM 34.3153 -84.5067 175° South 398 458 37,000  Level Atlanta Center
Wed 09:14:10 PM 34.2047 -84.4933 174° South 404 465 37,000  Level Atlanta Center
Wed 09:15:10 PM 34.0836 -84.4828 176° South 404 465 37,000  Level Atlanta Center
Wed 09:16:10 PM 33.9772 -84.4722 175° South 398 458 37,000  Level Atlanta Center
Wed 09:17:10 PM 33.8708 -84.4617 175° South 398 458 37,000  Level Atlanta Center
Wed 09:18:10 PM 33.7603 -84.4511 175° South 398 458 37,000  Level Atlanta Center
Wed 09:19:10 PM 33.6517 -84.4406 175° South 398 458 37,000  Level Atlanta Center
Wed 09:20:10 PM 33.5556 -84.4378 179° South 391 450 37,000  Level Atlanta Center
Wed 09:21:10 PM 33.4492 -84.4347 179° South 386 444 37,000  Level Atlanta Center
Wed 09:22:10 PM 33.3406 -84.4342 180° South 386 444 37,000  Level Atlanta Center
Wed 09:23:10 PM 33.2322 -84.4311 179° South 386 444 37,000  Level Atlanta Center
Wed 09:24:10 PM 33.1258 -84.4283 179° South 381 438 37,000  Level Atlanta Center
Wed 09:25:10 PM 33.0192 -84.4303 181° South 388 447 37,000  Level Atlanta Center
Wed 09:26:10 PM 32.9003 -84.4272 179° South 388 447 37,000  Level Atlanta Center
Wed 09:27:10 PM 32.7939 -84.4219 178° South 383 441 37,000  Level Atlanta Center
Wed 09:28:10 PM 32.6875 -84.4092 174° South 383 441 37,000  Level Atlanta Center
Wed 09:29:10 PM 32.5789 -84.3889 171° South 395 455 37,000  Level Atlanta Center
Wed 09:30:10 PM 32.4706 -84.3686 171° South 395 455 37,000  Level Atlanta Center
Wed 09:31:10 PM 32.3619 -84.3461 170° South 400 460 37,000  Level Atlanta Center
Wed 09:32:10 PM 32.2514 -84.3286 172° South 400 460 37,000  Level Atlanta Center
Wed 09:33:10 PM 32.1450 -84.3086 171° South 400 460 37,000  Level Atlanta Center
Wed 09:34:10 PM 32.0322 -84.2886 171° South 400 460 37,000  Level Atlanta Center
Wed 09:34:43 PM 31.9856 -84.2789 170° South 411 473 37,000  Level Jacksonville Center
Wed 09:35:43 PM 31.8772 -84.2603 172° South 416 479 37,000  Level Jacksonville Center
Wed 09:36:43 PM 31.7689 -84.2414 172° South 405 466 37,000  Level Jacksonville Center
Wed 09:37:43 PM 31.6628 -84.2203 170° South 400 460 37,000  Level Jacksonville Center
Wed 09:38:43 PM 31.5542 -84.2019 172° South 400 460 37,000  Level Jacksonville Center
Wed 09:44:48 PM 30.8813 -84.0800 171° South 386 444 37,000  Level FlightAware ADS-B (KONZ)
Wed 09:45:22 PM 30.8222 -84.0695 172° South 381 438 37,000  Level FlightAware ADS-B (KONZ)
Wed 09:46:08 PM 30.7429 -84.0558 172° South 377 434 37,000  Level FlightAware ADS-B (KONZ)
Wed 09:46:46 PM 30.6762 -84.0442 171° South 372 428 37,000  Level FlightAware ADS-B (KONZ)
Wed 09:47:16 PM 30.6255 -84.0352 172° South 370 426 37,000  Level FlightAware ADS-B (KONZ)
Wed 09:47:48 PM 30.5753 -84.0263 171° South 368 423 37,000  Level FlightAware ADS-B (KONZ)
Wed 09:48:28 PM 30.5177 -84.0161 171° South 367 422 37,000  Level FlightAware ADS-B (KONZ)
Wed 09:49:08 PM 30.4372 -84.0020 171° South 367 422 37,000  Level FlightAware ADS-B (KONZ)
Wed 09:49:38 PM 30.3931 -83.9943 171° South 368 423 37,000  Level FlightAware ADS-B (KONZ)
Wed 09:50:08 PM 30.3372 -83.9846 172° South 371 427 37,000  Level FlightAware ADS-B (KONZ)
Wed 09:50:47 PM 30.2684 -83.9726 171° South 374 430 37,000  Level FlightAware ADS-B (KONZ)
Wed 09:51:18 PM 30.2161 -83.9634 171° South 378 435 37,000  Level FlightAware ADS-B (KONZ)
Wed 09:51:55 PM 30.1504 -83.9519 171° South 382 440 37,000 51 Level FlightAware ADS-B (KONZ)
Wed 09:53:16 PM 30.0086 -83.9273 171° South 381 438 37,100 -179 Climbing FlightAware ADS-B (KONZ)
Wed 09:54:09 PM 29.9179 -83.9115 172° South 374 430 36,600 -897 Descending FlightAware ADS-B (KONZ)
Wed 09:54:43 PM 29.8742 -83.9058 172° South 377 434 35,800 -1,085 Descending Jacksonville Center
Wed 09:55:43 PM 29.7681 -83.8664 162° South 382 440 34,900 -400 Descending Jacksonville Center
Wed 09:56:43 PM 29.6661 -83.7983 150° Southeast 402 463 35,000 50 Climbing Jacksonville Center
Wed 09:57:43 PM 29.5622 -83.7283 150° Southeast 413 475 35,000 -800 Level Jacksonville Center
Wed 09:58:43 PM 29.4603 -83.6653 152° Southeast 418 481 33,400 -2,300 Descending Jacksonville Center
Wed 09:59:43 PM 29.3564 -83.5978 150° Southeast 423 487 30,400 -2,800 Descending Jacksonville Center
Wed 10:00:43 PM 29.2503 -83.5306 151° Southeast 423 487 27,800 -2,300 Descending Jacksonville Center
Wed 10:01:43 PM 29.1483 -83.4633 150° Southeast 428 493 25,800 -1,950 Descending Jacksonville Center
Wed 10:02:43 PM 29.0400 -83.3961 152° Southeast 433 498 23,900 -1,850 Descending Jacksonville Center
Wed 10:03:43 PM 28.9358 -83.3314 151° Southeast 433 498 22,100 -1,750 Descending Jacksonville Center
Wed 10:04:43 PM 28.8339 -83.2647 150° Southeast 428 493 20,400 -1,800 Descending Jacksonville Center
Wed 10:05:43 PM 28.7381 -83.2028 150° Southeast 411 473 18,500 -1,727 Descending Jacksonville Center
Wed 10:08:01 PM 28.5167 -83.0667 152° Southeast 378 435 14,700 -1,636 Descending Tampa TRACON
Wed 10:09:01 PM 28.4167 -83.0000 150° Southeast 375 432 13,100 -810 Descending Tampa TRACON
Wed 10:10:07 PM 28.3167 -82.9667 164° South 366 421 13,000 -250 Descending Tampa TRACON
Wed 10:11:01 PM 28.2167 -82.9333 164° South 363 418 12,600 -950 Descending Tampa TRACON
Wed 10:12:07 PM 28.1333 -82.9000 161° South 287 330 11,100 -1,667 Descending Tampa TRACON
Wed 10:13:07 PM 28.0667 -82.8833 168° South 268 308 9,100 -2,150 Descending Tampa TRACON
Wed 10:14:07 PM 28.0000 -82.8500 156° South 259 298 6,800 -2,368 Descending Tampa TRACON
Wed 10:15:01 PM 27.9333 -82.8333 168° South 256 295 4,600 -1,684 Descending Tampa TRACON
Wed 10:16:01 PM 27.8667 -82.8000 156° South 223 257 3,600 -900 Descending Tampa TRACON
Wed 10:17:01 PM 27.8167 -82.7667 149° Southeast 187 215 2,800 -947 Descending Tampa TRACON
Wed 10:17:55 PM 27.8167 -82.7167 90° East 175 201 1,800 -742 Descending Tampa TRACON
Wed 10:19:00 PM 27.9000 -82.6833 North  Level FlightAware Approximate
Wed 10:20:07 PM 27.8833 -82.6833 North 140 161 500  Level Tampa TRACON

Login

Don't have an account? Register now (free) for customized features, flight alerts, and more!